Accueil
METAR-TAF:

METAR-TAF

Aéroports :

Jacksonville, Caroline du Nord, États-Unis

latitude: 34-42-21N, longitude: 077-26-27W, altitude: 7 m

Observation

Le bulletin a été fait il y a 1 heure et 8 minutes, à 14:56 UTC
Vent 10 kt de nord/nord-est
Température 6°C
Humidité 65%
Pression 1029 hPa
Visibilité: 16.1 km
Nuages épars à une hauteur de 15000 ft
Nuages épars à une hauteur de 24000 ft

METAR: KNCA 141456Z 02010KT 10SM SCT150 SCT240 06/00 A3039 RMK AO2 SLP292 T00610000 50000 $

Heure: 11:04 (16:04 UTC)

Prévision

Prévision valable du 14 à 09 UTC au 15 à 09 UTC
Vent 10 kt de nord/nord-est
Visibilité 10 km ou plus
Ciel clair
Evoluant progressivement
du 14 à 13 UTC au 14 à 15 UTC
Vent 10 kt de direction variable
Visibilité: 1220 m
Nuages épars à une hauteur de 3000 ft
Nuages fragmentés à une hauteur de 20000 ft

TAF: KNCA 1409/1509 02010KT 9999 SKC QNH3034INS BECMG 1413/1415 VRB010KT 9999 SCT030 BKN200 QNH3028INS T03/1412Z T13/1419Z COR 1220

Observations et prévisions météorologiques de plus de 4000 aéroports (messages METAR et TAF).

Les stations disponibles sont représentées par des disques jaunes et rouges sur la carte.

Passer la souris dessus pour voir le nom de la station.

Cliquer dessus pour voir les observations et prévisions météorologiques.

Pour changer de carte: cliquez sur les boutons verts avec une croix noire pour zoomer, sur le bouton vert avec un tiret pour effectuer un zoom arrière, ou sur les flèches vertes pour les cartes adjacentes.


METAR-TAF: